Time;durP1;ratioP1;P1;durP2;ratioP2;P2;SDS_P1;SDS_P2;PMS_P1;PMS_P2;Temp;Humidity;BMP_temperature;BMP_pressure;BME280_temperature;BME280_humidity;BME280_pressure;Samples;Min_cycle;Max_cycle;Signal;HPM_P1;HPM_P2
2020/12/31 00:01:38;;;;;;;56.65;32.78;;;4.60;99.90;;;;;;6370293;22;20075;-58
2020/12/31 00:04:03;;;;;;;52.03;31.13;;;4.60;99.90;;;;;;6370319;22;20038;-58
2020/12/31 00:06:29;;;;;;;55.40;32.60;;;4.60;99.90;;;;;;6369903;22;20036;-58
2020/12/31 00:08:55;;;;;;;54.35;31.88;;;4.50;99.90;;;;;;6370238;22;19999;-58
2020/12/31 00:11:21;;;;;;;54.97;30.50;;;4.50;99.90;;;;;;6370272;22;20343;-58
2020/12/31 00:13:47;;;;;;;58.25;33.25;;;4.50;99.90;;;;;;6370183;22;20002;-58
2020/12/31 00:16:12;;;;;;;61.72;34.25;;;4.60;99.90;;;;;;6369955;22;20389;-59
2020/12/31 00:18:38;;;;;;;59.17;33.05;;;4.60;99.90;;;;;;6370032;22;20007;-58
2020/12/31 00:21:04;;;;;;;62.92;34.50;;;4.60;99.90;;;;;;6370053;22;20372;-58
2020/12/31 00:23:30;;;;;;;59.55;34.90;;;4.60;99.90;;;;;;6370237;22;20007;-58
2020/12/31 00:25:55;;;;;;;61.83;33.50;;;4.60;99.90;;;;;;6369988;22;20105;-58
2020/12/31 00:28:22;;;;;;;57.40;32.53;;;4.50;99.90;;;;;;6369948;22;20428;-58
2020/12/31 00:30:49;;;;;;;56.72;31.52;;;4.50;99.90;;;;;;6370005;22;20006;-58
2020/12/31 00:33:19;;;;;;;56.22;31.50;;;4.50;99.90;;;;;;6370067;22;20101;-58
2020/12/31 00:35:49;;;;;;;50.90;30.98;;;4.50;99.90;;;;;;6369967;22;20013;-58
2020/12/31 00:38:15;;;;;;;54.35;31.70;;;4.50;99.90;;;;;;6369928;22;20010;-58
2020/12/31 00:40:41;;;;;;;58.08;31.48;;;4.40;99.90;;;;;;6369785;22;19994;-58
2020/12/31 00:43:07;;;;;;;59.13;32.80;;;4.50;99.90;;;;;;6369877;22;20010;-58
2020/12/31 00:45:33;;;;;;;56.83;31.80;;;4.40;99.90;;;;;;6369814;22;20010;-58
2020/12/31 00:47:59;;;;;;;52.90;29.75;;;4.40;99.90;;;;;;6369652;22;20142;-59
2020/12/31 00:50:24;;;;;;;51.15;30.13;;;4.40;99.90;;;;;;6369792;22;20009;-58
2020/12/31 00:52:54;;;;;;;47.75;30.25;;;4.40;99.90;;;;;;6369745;22;20029;-58
2020/12/31 00:55:20;;;;;;;46.45;28.20;;;4.40;99.90;;;;;;6369761;22;20082;-58
2020/12/31 00:57:49;;;;;;;51.38;30.27;;;4.40;99.90;;;;;;6341767;22;20086;-59
2020/12/31 01:00:16;;;;;;;51.97;31.38;;;4.40;99.90;;;;;;6341931;22;20006;-58
2020/12/31 01:03:07;;;;;;;53.85;30.23;;;4.40;99.90;;;;;;6365101;22;20013;-58
2020/12/31 01:05:33;;;;;;;51.42;31.60;;;4.40;99.90;;;;;;6369546;22;20014;-59
2020/12/31 01:07:59;;;;;;;60.10;33.13;;;4.40;99.90;;;;;;6369457;22;20010;-58
2020/12/31 01:10:25;;;;;;;55.30;32.75;;;4.40;99.90;;;;;;6369644;22;20026;-58
2020/12/31 01:12:51;;;;;;;53.13;31.08;;;4.40;99.90;;;;;;6369628;22;19994;-58
2020/12/31 01:15:17;;;;;;;61.22;33.90;;;4.40;99.90;;;;;;6369324;22;20347;-58
2020/12/31 01:17:43;;;;;;;59.13;33.67;;;4.40;99.90;;;;;;6369567;22;20381;-58
2020/12/31 01:20:09;;;;;;;60.45;34.22;;;4.40;99.90;;;;;;6369653;22;20006;-58
2020/12/31 01:22:34;;;;;;;57.97;32.70;;;4.40;99.90;;;;;;6369558;22;19999;-58
2020/12/31 01:25:01;;;;;;;59.30;32.13;;;4.40;99.90;;;;;;6369334;22;20018;-59
2020/12/31 01:27:26;;;;;;;60.17;33.83;;;4.40;99.90;;;;;;6369331;22;20009;-58
2020/12/31 01:29:52;;;;;;;59.78;34.40;;;4.40;99.90;;;;;;6369406;22;20335;-58
2020/12/31 01:32:25;;;;;;;58.35;34.53;;;4.50;99.90;;;;;;6369573;22;20075;-58
2020/12/31 01:34:51;;;;;;;;;;;4.40;99.90;;;;;;6369929;22;20063;-59
2020/12/31 01:37:18;;;;;;;57.33;32.33;;;4.40;99.90;;;;;;6369414;22;19898;-58
2020/12/31 01:39:44;;;;;;;59.20;33.40;;;4.30;99.90;;;;;;6369410;22;20343;-58
2020/12/31 01:42:10;;;;;;;56.35;33.03;;;4.30;99.90;;;;;;6341574;22;19999;-58
2020/12/31 01:44:36;;;;;;;54.75;32.25;;;4.30;99.90;;;;;;6369328;22;20010;-58
2020/12/31 01:47:02;;;;;;;55.45;32.58;;;4.20;99.90;;;;;;6369186;22;20492;-58
2020/12/31 01:49:31;;;;;;;56.17;33.10;;;4.20;99.90;;;;;;6369316;22;20094;-58
2020/12/31 01:51:58;;;;;;;56.45;32.83;;;4.20;99.90;;;;;;6369060;22;19998;-58
2020/12/31 01:54:25;;;;;;;53.75;32.13;;;4.20;99.90;;;;;;6369269;22;20002;-58
2020/12/31 01:56:53;;;;;;;62.80;34.08;;;4.20;99.90;;;;;;6369170;22;20008;-59
2020/12/31 01:59:19;;;;;;;58.03;33.30;;;4.20;99.90;;;;;;6369374;22;20381;-58
2020/12/31 02:01:47;;;;;;;52.35;32.17;;;4.20;99.90;;;;;;6369266;22;20055;-58
2020/12/31 02:04:13;;;;;;;61.35;33.08;;;4.20;99.90;;;;;;6369120;22;20467;-58
2020/12/31 02:06:39;;;;;;;53.78;32.08;;;4.30;99.90;;;;;;6368946;22;20075;-58
2020/12/31 02:09:06;;;;;;;54.13;32.45;;;4.30;99.90;;;;;;6369214;22;20006;-58
2020/12/31 02:11:32;;;;;;;55.15;30.48;;;4.30;99.90;;;;;;6369222;22;20002;-58
2020/12/31 02:13:58;;;;;;;52.60;30.88;;;4.30;99.90;;;;;;6341292;22;20002;-58
2020/12/31 02:16:26;;;;;;;58.55;32.53;;;4.40;99.90;;;;;;6368897;22;20048;-58
2020/12/31 02:18:55;;;;;;;53.17;32.15;;;4.40;99.90;;;;;;6369258;22;20002;-58
2020/12/31 02:21:29;;;;;;;51.72;30.75;;;4.40;99.90;;;;;;6369149;22;20002;-58
2020/12/31 02:23:56;;;;;;;51.30;30.30;;;4.40;99.90;;;;;;6369168;22;20010;-58
2020/12/31 02:26:24;;;;;;;53.10;31.38;;;4.40;99.90;;;;;;6368890;22;20007;-58
2020/12/31 02:28:51;;;;;;;52.75;30.20;;;4.50;99.90;;;;;;6369281;22;20077;-58
2020/12/31 02:31:17;;;;;;;56.95;32.75;;;4.40;99.90;;;;;;6369183;22;20362;-58
2020/12/31 02:33:47;;;;;;;58.03;32.55;;;4.40;99.90;;;;;;6369085;22;20042;-58
2020/12/31 02:36:14;;;;;;;50.47;31.65;;;4.40;99.90;;;;;;6368947;22;20002;-58
2020/12/31 02:38:41;;;;;;;51.10;31.27;;;4.40;99.90;;;;;;6369074;22;20037;-58
2020/12/31 02:41:09;;;;;;;53.10;31.10;;;4.40;99.90;;;;;;6369087;22;20002;-58
2020/12/31 02:43:35;;;;;;;52.45;30.65;;;4.40;99.90;;;;;;6368995;22;20025;-58
2020/12/31 02:46:05;;;;;;;56.08;31.42;;;4.40;99.90;;;;;;6368841;22;20021;-58
2020/12/31 02:48:32;;;;;;;52.58;32.13;;;4.40;99.90;;;;;;6368998;22;20013;-58
2020/12/31 02:50:58;;;;;;;53.00;31.42;;;4.40;99.90;;;;;;6341258;22;20508;-58
2020/12/31 02:53:24;;;;;;;55.05;31.15;;;4.40;99.90;;;;;;6368975;22;19998;-58
2020/12/31 02:55:50;;;;;;;52.45;31.67;;;4.40;99.90;;;;;;6368813;22;19998;-58
2020/12/31 02:58:16;;;;;;;52.30;29.55;;;4.30;99.90;;;;;;6368987;22;20447;-58
2020/12/31 03:00:43;;;;;;;55.38;30.85;;;4.40;99.90;;;;;;6369065;22;20432;-58
2020/12/31 03:03:09;;;;;;;51.50;30.80;;;4.30;99.90;;;;;;6368697;22;20452;-58
2020/12/31 03:05:34;;;;;;;50.60;29.92;;;4.40;99.90;;;;;;6370348;22;20033;-58
2020/12/31 03:08:00;;;;;;;56.58;32.28;;;4.40;99.90;;;;;;6370672;22;20079;-58
2020/12/31 03:10:26;;;;;;;51.60;31.45;;;4.40;99.90;;;;;;6370813;22;20093;-58
2020/12/31 03:12:52;;;;;;;49.15;30.08;;;4.40;99.90;;;;;;6370809;22;20033;-58
2020/12/31 03:15:20;;;;;;;57.60;33.15;;;4.40;99.90;;;;;;6370782;22;19998;-58
2020/12/31 03:17:46;;;;;;;53.35;31.45;;;4.40;99.90;;;;;;6370725;22;20420;-58
2020/12/31 03:20:12;;;;;;;50.85;29.92;;;4.40;99.90;;;;;;6370884;22;20027;-58
2020/12/31 03:22:38;;;;;;;56.10;32.80;;;4.40;99.90;;;;;;6370686;22;19998;-58
2020/12/31 03:25:05;;;;;;;57.05;32.03;;;4.40;99.90;;;;;;6370616;22;20361;-58
2020/12/31 03:27:31;;;;;;;65.15;35.20;;;4.30;99.90;;;;;;6370581;22;20308;-59
2020/12/31 03:29:57;;;;;;;65.05;33.85;;;4.30;99.90;;;;;;6370643;22;19999;-58
2020/12/31 03:32:23;;;;;;;65.50;34.88;;;4.20;99.90;;;;;;6370626;22;20002;-58
2020/12/31 03:34:49;;;;;;;74.07;35.53;;;4.20;99.90;;;;;;6370562;22;20074;-58
2020/12/31 03:37:15;;;;;;;62.88;32.60;;;4.20;99.90;;;;;;6370597;22;20009;-58
2020/12/31 03:39:42;;;;;;;65.22;34.15;;;4.20;99.90;;;;;;6370512;22;19998;-58
2020/12/31 03:42:08;;;;;;;68.38;33.40;;;4.20;99.90;;;;;;6370541;22;19994;-58
2020/12/31 03:44:34;;;;;;;69.50;35.47;;;4.20;99.90;;;;;;6370439;22;20404;-58
2020/12/31 03:47:01;;;;;;;72.15;35.33;;;4.20;99.90;;;;;;6370493;22;20055;-58
2020/12/31 03:49:26;;;;;;;74.00;36.70;;;4.20;99.90;;;;;;6370473;22;20047;-58
2020/12/31 03:51:52;;;;;;;73.15;34.83;;;4.20;99.90;;;;;;6370339;22;19998;-58
2020/12/31 03:54:18;;;;;;;72.70;34.40;;;4.20;99.90;;;;;;6370429;22;20001;-58
2020/12/31 03:56:44;;;;;;;63.30;33.03;;;4.20;99.90;;;;;;6370467;22;20152;-58
2020/12/31 03:59:10;;;;;;;62.85;32.13;;;4.20;99.90;;;;;;6370132;22;20022;-58
2020/12/31 04:01:36;;;;;;;52.65;29.30;;;4.30;99.90;;;;;;6370326;22;20343;-58
2020/12/31 04:04:02;;;;;;;48.53;27.17;;;4.30;99.90;;;;;;6370317;22;19995;-58
2020/12/31 04:06:29;;;;;;;51.80;29.00;;;4.30;99.90;;;;;;6369929;22;20018;-58
2020/12/31 04:08:55;;;;;;;51.60;27.35;;;4.30;99.90;;;;;;6370212;22;20002;-57
2020/12/31 04:11:21;;;;;;;41.33;24.20;;;4.30;99.90;;;;;;6370284;22;20002;-58
2020/12/31 04:13:47;;;;;;;43.42;25.23;;;4.30;99.90;;;;;;6370317;22;20002;-58
2020/12/31 04:16:13;;;;;;;49.58;25.35;;;4.20;99.90;;;;;;6369921;22;20002;-58
2020/12/31 04:18:38;;;;;;;42.13;24.33;;;4.20;99.90;;;;;;6369956;22;20082;-58
2020/12/31 04:21:05;;;;;;;41.17;25.17;;;4.20;99.90;;;;;;6369955;22;20086;-58
2020/12/31 04:23:31;;;;;;;43.78;25.70;;;4.20;99.90;;;;;;6370147;22;19998;-58
2020/12/31 04:25:57;;;;;;;43.30;26.00;;;4.30;99.90;;;;;;6369972;22;20075;-58
2020/12/31 04:28:23;;;;;;;41.55;25.38;;;4.30;99.90;;;;;;6370019;22;20005;-58
2020/12/31 04:30:49;;;;;;;36.42;20.95;;;4.30;99.90;;;;;;6369917;22;20497;-58
2020/12/31 04:33:16;;;;;;;36.30;20.58;;;4.30;99.90;;;;;;6369944;22;19998;-58
2020/12/31 04:35:41;;;;;;;31.00;19.83;;;4.30;99.90;;;;;;6369949;22;20006;-58
2020/12/31 04:38:08;;;;;;;33.75;19.08;;;4.20;99.90;;;;;;6369934;22;20005;-58
2020/12/31 04:40:34;;;;;;;37.25;20.50;;;4.30;99.90;;;;;;6369660;22;20010;-59
2020/12/31 04:43:01;;;;;;;37.80;21.90;;;4.20;99.90;;;;;;6341969;22;20002;-58
2020/12/31 04:45:29;;;;;;;42.03;24.15;;;4.20;99.90;;;;;;6369767;22;20015;-58
2020/12/31 04:47:57;;;;;;;51.05;28.40;;;4.20;99.90;;;;;;6369872;22;20002;-58
2020/12/31 04:50:31;;;;;;;47.38;25.33;;;4.20;99.90;;;;;;6369705;22;20338;-59
2020/12/31 04:53:10;;;;;;;43.13;23.75;;;4.20;99.90;;;;;;6369817;22;20329;-58
2020/12/31 04:55:46;;;;;;;46.88;27.48;;;4.20;99.90;;;;;;6369747;22;20002;-58
2020/12/31 04:58:16;;;;;;;47.28;25.63;;;4.20;99.90;;;;;;6369607;22;20002;-58
2020/12/31 05:00:43;;;;;;;43.95;26.92;;;4.10;99.90;;;;;;6369673;22;20038;-58
2020/12/31 05:03:10;;;;;;;50.13;26.90;;;4.10;99.90;;;;;;6369704;22;19998;-58
2020/12/31 05:05:37;;;;;;;53.42;29.08;;;4.20;99.90;;;;;;6341719;22;20119;-58
2020/12/31 05:08:04;;;;;;;49.08;27.17;;;4.20;99.90;;;;;;6369431;22;20078;-58
2020/12/31 05:10:30;;;;;;;48.28;27.45;;;4.20;99.90;;;;;;6369701;22;19999;-58
2020/12/31 05:13:06;;;;;;;51.80;27.20;;;4.10;99.90;;;;;;6369674;22;20313;-58
2020/12/31 05:15:40;;;;;;;54.03;29.60;;;4.20;99.90;;;;;;6369482;22;20028;-59
2020/12/31 05:18:19;;;;;;;60.75;30.85;;;4.20;99.90;;;;;;6369714;22;20002;-58
2020/12/31 05:20:54;;;;;;;62.28;32.45;;;4.20;99.90;;;;;;6368839;22;20002;-59
2020/12/31 05:23:25;;;;;;;65.95;31.83;;;4.20;99.90;;;;;;6368058;22;20458;-58
2020/12/31 05:25:51;;;;;;;51.03;27.48;;;4.20;99.90;;;;;;6367826;22;20115;-59
2020/12/31 05:28:30;;;;;;;55.45;28.92;;;4.20;99.90;;;;;;6367417;22;20061;-58
2020/12/31 05:30:59;;;;;;;50.00;26.58;;;4.20;99.90;;;;;;6340151;22;20443;-59
2020/12/31 05:33:35;;;;;;;50.88;27.23;;;4.20;99.90;;;;;;6368097;22;20320;-59
2020/12/31 05:36:18;;;;;;;46.53;23.95;;;4.30;99.90;;;;;;6313824;22;20013;-59
2020/12/31 05:39:02;;;;;;;43.78;25.55;;;4.20;99.90;;;;;;6367861;22;20025;-59
2020/12/31 05:41:28;;;;;;;47.78;24.90;;;4.20;99.90;;;;;;6367669;22;20002;-59
2020/12/31 05:44:04;;;;;;;54.30;28.90;;;4.20;99.90;;;;;;6367799;22;20010;-58
2020/12/31 05:46:31;;;;;;;57.03;28.60;;;4.20;99.90;;;;;;6369003;22;20059;-59
2020/12/31 05:48:58;;;;;;;60.90;30.35;;;4.20;99.90;;;;;;6369167;22;20317;-59
2020/12/31 05:51:32;;;;;;;55.58;28.92;;;4.20;99.90;;;;;;6369371;22;20006;-59
2020/12/31 05:54:16;;;;;;;53.58;27.60;;;4.20;99.90;;;;;;6341455;22;20056;-58
2020/12/31 05:56:44;;;;;;;54.83;28.25;;;4.20;99.90;;;;;;6369279;22;20081;-59
2020/12/31 05:59:26;;;;;;;53.80;27.77;;;4.20;99.90;;;;;;6341575;22;20007;-59
2020/12/31 06:02:03;;;;;;;51.83;28.98;;;4.20;99.90;;;;;;6341480;22;20002;-59
2020/12/31 06:04:29;;;;;;;50.50;27.60;;;4.30;99.90;;;;;;6369115;22;20003;-59
2020/12/31 06:06:59;;;;;;;53.55;27.50;;;4.20;99.90;;;;;;6369129;22;20025;-59
2020/12/31 06:09:29;;;;;;;54.65;28.55;;;4.30;99.90;;;;;;6369089;22;19998;-59
2020/12/31 06:11:58;;;;;;;55.65;27.95;;;4.30;99.90;;;;;;6368625;22;20444;-59
2020/12/31 06:14:27;;;;;;;59.75;32.13;;;4.20;99.90;;;;;;6368955;22;19998;-59
2020/12/31 06:16:58;;;;;;;56.08;29.20;;;4.20;99.90;;;;;;6369129;22;20008;-59
2020/12/31 06:19:29;;;;;;;60.30;30.20;;;4.30;99.90;;;;;;6369144;22;20002;-59
2020/12/31 06:22:15;;;;;;;59.17;31.77;;;4.30;99.90;;;;;;6369072;22;20045;-59
2020/12/31 06:24:45;;;;;;;80.70;47.28;;;4.20;99.90;;;;;;6368956;22;20346;-59
2020/12/31 06:27:17;;;;;;;63.40;31.98;;;4.20;99.90;;;;;;6367880;22;20005;-59
2020/12/31 06:29:50;;;;;;;60.75;32.10;;;4.20;99.90;;;;;;6368431;22;20002;-59
2020/12/31 06:32:17;;;;;;;70.85;32.22;;;4.20;99.90;;;;;;6368941;22;20009;-59
2020/12/31 06:34:44;;;;;;;60.72;29.52;;;4.10;99.90;;;;;;6340856;22;20335;-59
2020/12/31 06:37:11;;;;;;;67.88;31.80;;;4.20;99.90;;;;;;6368949;22;20006;-59
2020/12/31 06:39:39;;;;;;;65.72;31.88;;;4.20;99.90;;;;;;6370704;22;20005;-59
2020/12/31 06:42:05;;;;;;;62.58;28.83;;;4.10;99.90;;;;;;6371178;22;20002;-59
2020/12/31 06:44:31;;;;;;;65.22;30.67;;;4.10;99.90;;;;;;6370760;22;20006;-59
2020/12/31 06:46:58;;;;;;;68.97;30.00;;;4.10;99.90;;;;;;6370945;22;20107;-59
2020/12/31 06:49:51;;;;;;;65.60;29.48;;;4.10;99.90;;;;;;6371038;22;19998;-59
2020/12/31 06:52:22;;;;;;;60.42;29.08;;;4.00;99.90;;;;;;6370015;22;20007;-63
2020/12/31 06:54:48;;;;;;;64.63;30.02;;;4.00;99.90;;;;;;6370892;22;20017;-62
2020/12/31 06:57:40;;;;;;;61.03;29.30;;;4.00;99.90;;;;;;6370795;22;19994;-68
2020/12/31 07:00:06;;;;;;;58.42;27.90;;;4.10;99.90;;;;;;6342941;22;20006;-70
2020/12/31 07:02:45;;;;;;;67.32;30.48;;;4.10;99.90;;;;;;6370800;22;19998;-71
2020/12/31 07:05:21;;;;;;;67.80;31.85;;;4.10;99.90;;;;;;6370674;22;20013;-68
2020/12/31 07:07:47;;;;;;;64.57;30.25;;;4.00;99.90;;;;;;6341981;22;20014;-59
2020/12/31 07:10:13;;;;;;;61.38;30.33;;;4.00;99.90;;;;;;6368182;22;20013;-60
2020/12/31 07:12:47;;;;;;;65.80;29.67;;;4.00;99.90;;;;;;6370222;22;20006;-59
2020/12/31 07:15:17;;;;;;;57.38;28.38;;;4.00;99.90;;;;;;6341196;22;20009;-59
2020/12/31 07:17:46;;;;;;;56.63;28.45;;;4.00;99.90;;;;;;6370656;22;20339;-61
2020/12/31 07:20:13;;;;;;;60.05;29.00;;;4.00;99.90;;;;;;6370672;22;20005;-60
2020/12/31 07:22:40;;;;;;;60.30;28.30;;;4.00;99.90;;;;;;6370703;22;20002;-59
2020/12/31 07:25:07;;;;;;;65.07;30.80;;;4.10;99.90;;;;;;6370527;22;20002;-60
2020/12/31 07:27:41;;;;;;;58.28;27.27;;;4.00;99.90;;;;;;6342435;22;20355;-60
2020/12/31 07:30:07;;;;;;;64.45;30.25;;;4.10;99.90;;;;;;6370675;22;19999;-59
2020/12/31 07:33:01;;;;;;;66.82;32.60;;;4.00;99.90;;;;;;6370516;22;20067;-59
2020/12/31 07:35:29;;;;;;;62.53;30.60;;;4.10;99.90;;;;;;6366260;22;20396;-60
2020/12/31 07:37:58;;;;;;;75.10;31.83;;;4.10;99.90;;;;;;6370389;22;20002;-60
2020/12/31 07:40:29;;;;;;;66.03;31.13;;;4.10;99.90;;;;;;6370374;22;20002;-60
2020/12/31 07:42:56;;;;;;;61.65;29.95;;;4.10;99.90;;;;;;6370486;22;19998;-60
2020/12/31 07:45:23;;;;;;;69.30;32.42;;;4.10;99.90;;;;;;6370316;22;20009;-59
2020/12/31 07:47:50;;;;;;;67.53;30.30;;;4.20;99.90;;;;;;6370342;22;20006;-60
2020/12/31 07:50:16;;;;;;;68.65;31.83;;;4.20;99.90;;;;;;6370012;22;20064;-60
2020/12/31 07:52:42;;;;;;;70.35;33.00;;;4.20;99.90;;;;;;6370375;22;20037;-63
2020/12/31 07:55:08;;;;;;;71.95;31.60;;;4.20;99.90;;;;;;6370233;22;20002;-59
2020/12/31 07:57:39;;;;;;;68.15;31.60;;;4.20;99.90;;;;;;6370221;22;20002;-59
2020/12/31 08:00:06;;;;;;;69.60;31.90;;;4.20;99.90;;;;;;6370288;22;20002;-59
2020/12/31 08:02:33;;;;;;;69.90;32.03;;;4.20;99.90;;;;;;6370085;22;19999;-59
2020/12/31 08:04:59;;;;;;;76.43;33.78;;;4.20;99.90;;;;;;6342167;22;20355;-58
2020/12/31 08:07:24;;;;;;;68.57;31.20;;;4.20;99.90;;;;;;6370044;22;20034;-58
2020/12/31 08:09:51;;;;;;;66.43;32.20;;;4.20;99.90;;;;;;6370099;22;20101;-60
2020/12/31 08:12:17;;;;;;;67.95;32.60;;;4.30;99.90;;;;;;6370004;22;19994;-62
2020/12/31 08:14:46;;;;;;;69.68;31.67;;;4.30;99.90;;;;;;6370065;22;20086;-62
2020/12/31 08:17:13;;;;;;;65.25;31.75;;;4.30;99.90;;;;;;6370112;22;20007;-62
2020/12/31 08:19:40;;;;;;;71.72;33.30;;;4.30;99.90;;;;;;6369973;22;20076;-61
2020/12/31 08:22:46;;;;;;;68.80;32.38;;;4.30;99.90;;;;;;6370003;22;20058;-60
2020/12/31 08:25:18;;;;;;;68.15;30.90;;;4.30;99.90;;;;;;6344779;22;20018;-60
2020/12/31 08:27:46;;;;;;;70.43;31.80;;;4.30;99.90;;;;;;6369845;22;20005;-59
2020/12/31 08:30:12;;;;;;;71.88;33.33;;;4.30;99.90;;;;;;6369934;22;19998;-59
2020/12/31 08:32:50;;;;;;;71.18;32.28;;;4.40;99.90;;;;;;6369641;22;20313;-63
2020/12/31 08:35:25;;;;;;;73.88;33.67;;;4.30;99.90;;;;;;6369792;22;20006;-63
2020/12/31 08:38:05;;;;;;;72.25;32.95;;;4.40;99.90;;;;;;6369678;22;20081;-61
2020/12/31 08:40:32;;;;;;;69.45;31.88;;;4.40;99.90;;;;;;6369945;22;20025;-61
2020/12/31 08:42:59;;;;;;;69.22;32.78;;;4.40;99.90;;;;;;6369744;22;20424;-61
2020/12/31 08:45:27;;;;;;;70.90;33.78;;;4.40;99.90;;;;;;6369489;22;20340;-61
2020/12/31 08:48:05;;;;;;;67.22;33.13;;;4.30;99.90;;;;;;6369629;22;19998;-61
2020/12/31 08:50:33;;;;;;;72.43;34.38;;;4.40;99.90;;;;;;6369666;22;20012;-60
2020/12/31 08:53:02;;;;;;;64.82;31.25;;;4.40;99.90;;;;;;6369605;22;20013;-61
2020/12/31 08:55:28;;;;;;;64.95;31.23;;;4.40;99.90;;;;;;6369639;22;20002;-61
2020/12/31 08:58:16;;;;;;;70.50;33.45;;;4.40;99.90;;;;;;6369370;22;19998;-61
2020/12/31 09:00:43;;;;;;;65.80;32.70;;;4.40;99.90;;;;;;6369642;22;20013;-62
2020/12/31 09:03:09;;;;;;;70.70;32.28;;;4.50;99.90;;;;;;6369182;22;19998;-59
2020/12/31 09:05:36;;;;;;;70.20;32.25;;;4.50;99.90;;;;;;6369451;22;20344;-60
2020/12/31 09:08:08;;;;;;;65.30;32.05;;;4.50;99.90;;;;;;6369164;22;20134;-60
2020/12/31 09:10:36;;;;;;;69.28;32.58;;;4.50;99.90;;;;;;6369629;22;20089;-60
2020/12/31 09:13:03;;;;;;;67.15;31.88;;;4.50;99.90;;;;;;6369390;22;19998;-57
2020/12/31 09:15:29;;;;;;;75.43;34.80;;;4.50;99.90;;;;;;6369478;22;20006;-57
2020/12/31 09:17:55;;;;;;;65.10;33.78;;;4.50;99.90;;;;;;6369549;22;20046;-60
2020/12/31 09:20:30;;;;;;;94.40;36.15;;;4.50;99.90;;;;;;6369489;22;20002;-59
2020/12/31 09:23:10;;;;;;;73.10;33.97;;;4.60;99.90;;;;;;6369252;22;20152;-59
2020/12/31 09:25:48;;;;;;;72.97;32.20;;;4.60;99.90;;;;;;6369396;22;20069;-58
2020/12/31 09:28:15;;;;;;;71.15;34.28;;;4.70;99.90;;;;;;6369242;22;20443;-58
2020/12/31 09:30:40;;;;;;;68.25;32.67;;;4.70;99.90;;;;;;6369488;22;20007;-63
2020/12/31 09:33:06;;;;;;;64.60;32.17;;;4.80;99.90;;;;;;6369469;22;20439;-62
2020/12/31 09:35:37;;;;;;;72.63;31.65;;;4.80;99.90;;;;;;6369309;22;20419;-62
2020/12/31 09:38:02;;;;;;;75.47;32.92;;;4.90;99.90;;;;;;6369248;22;19998;-62
2020/12/31 09:40:28;;;;;;;65.90;32.28;;;4.90;99.90;;;;;;6369166;22;20447;-64
2020/12/31 09:42:55;;;;;;;59.85;29.52;;;5.00;99.90;;;;;;6369367;22;20002;-63
2020/12/31 09:45:21;;;;;;;65.78;33.03;;;5.00;99.90;;;;;;6368965;22;20006;-63
2020/12/31 09:47:50;;;;;;;71.38;31.50;;;5.10;99.90;;;;;;6369295;22;20055;-57
2020/12/31 09:50:15;;;;;;;70.05;31.77;;;5.20;99.90;;;;;;6368135;22;20335;-57
2020/12/31 09:52:41;;;;;;;70.50;31.33;;;5.20;99.90;;;;;;6368458;22;20086;-59
2020/12/31 09:55:07;;;;;;;69.95;32.33;;;5.30;99.90;;;;;;6369415;22;20309;-59
2020/12/31 09:57:36;;;;;;;63.88;32.40;;;5.30;99.90;;;;;;6366850;22;20109;-57
2020/12/31 10:00:03;;;;;;;64.63;32.25;;;5.30;99.90;;;;;;6366051;22;19995;-60
2020/12/31 10:02:37;;;;;;;66.50;32.85;;;5.40;99.90;;;;;;6365888;22;20014;-59
2020/12/31 10:05:05;;;;;;;65.53;31.50;;;5.50;99.90;;;;;;6365807;22;20010;-59
2020/12/31 10:07:31;;;;;;;64.88;32.05;;;5.60;99.90;;;;;;6366102;22;20018;-59
2020/12/31 10:09:57;;;;;;;65.32;32.88;;;5.60;99.90;;;;;;6366230;22;20038;-59
2020/12/31 10:12:24;;;;;;;71.57;34.22;;;5.70;99.90;;;;;;6366324;22;20013;-59
2020/12/31 10:14:50;;;;;;;68.38;33.08;;;5.80;99.90;;;;;;6368225;22;20003;-59
2020/12/31 10:17:17;;;;;;;67.00;34.40;;;5.90;99.90;;;;;;6368334;22;20002;-60
2020/12/31 10:19:42;;;;;;;67.05;33.88;;;5.90;99.90;;;;;;6368521;22;20003;-60
2020/12/31 10:22:09;;;;;;;74.57;35.30;;;6.00;99.90;;;;;;6368554;22;20309;-59
2020/12/31 10:24:35;;;;;;;62.05;32.85;;;6.00;99.90;;;;;;6368317;22;20038;-59
2020/12/31 10:27:01;;;;;;;65.43;32.05;;;6.10;99.90;;;;;;6368468;22;20488;-59
2020/12/31 10:29:27;;;;;;;70.30;32.40;;;6.10;99.90;;;;;;6368314;22;20006;-62
2020/12/31 10:31:54;;;;;;;62.10;31.60;;;6.10;99.90;;;;;;6339843;22;20006;-60
2020/12/31 10:34:21;;;;;;;67.43;32.97;;;6.00;99.90;;;;;;6363561;22;20016;-60
2020/12/31 10:36:55;;;;;;;67.90;32.65;;;6.00;99.90;;;;;;6366494;22;20458;-60
2020/12/31 10:39:22;;;;;;;65.70;33.47;;;6.10;99.90;;;;;;6368267;22;20010;-59
2020/12/31 10:41:49;;;;;;;69.82;33.00;;;6.20;99.90;;;;;;6368138;22;20006;-59
2020/12/31 10:44:15;;;;;;;63.63;32.53;;;6.20;99.90;;;;;;6368257;22;20030;-59
2020/12/31 10:46:41;;;;;;;68.15;33.63;;;6.30;99.90;;;;;;6367985;22;20006;-59
2020/12/31 10:49:07;;;;;;;68.45;32.30;;;6.30;99.90;;;;;;6368253;22;19998;-59
2020/12/31 10:51:37;;;;;;;70.90;34.65;;;6.40;99.90;;;;;;6368532;22;20435;-59
2020/12/31 10:54:07;;;;;;;68.15;34.15;;;6.40;99.90;;;;;;6367752;22;20040;-59
2020/12/31 10:56:33;;;;;;;71.25;34.80;;;6.40;99.90;;;;;;6368033;22;20045;-59
2020/12/31 10:58:59;;;;;;;69.00;34.65;;;6.40;99.90;;;;;;6367376;22;20090;-59
2020/12/31 11:01:25;;;;;;;66.13;33.65;;;6.40;99.90;;;;;;6366409;22;19998;-59
2020/12/31 11:03:51;;;;;;;70.68;32.70;;;6.40;99.90;;;;;;6366704;22;20040;-60
2020/12/31 11:06:27;;;;;;;70.35;34.25;;;6.40;99.90;;;;;;6367817;22;20371;-59
2020/12/31 11:08:56;;;;;;;63.72;33.05;;;6.40;99.90;;;;;;6368051;22;20010;-59
2020/12/31 11:11:33;;;;;;;64.30;32.45;;;6.40;99.90;;;;;;6368005;22;20007;-60
2020/12/31 11:13:59;;;;;;;66.57;31.65;;;6.40;99.90;;;;;;6368126;22;20002;-59
2020/12/31 11:16:25;;;;;;;58.53;32.15;;;6.50;99.90;;;;;;6367983;22;20420;-60
2020/12/31 11:18:51;;;;;;;67.13;33.35;;;6.50;99.90;;;;;;6368043;22;20002;-60
2020/12/31 11:21:19;;;;;;;86.13;33.88;;;6.50;99.90;;;;;;6367864;22;20328;-65
2020/12/31 11:23:45;;;;;;;64.72;32.63;;;6.50;99.90;;;;;;6368197;22;20013;-59
2020/12/31 11:26:13;;;;;;;60.28;31.95;;;6.50;99.90;;;;;;6367385;22;20006;-59
2020/12/31 11:28:39;;;;;;;63.22;31.10;;;6.40;99.90;;;;;;6367379;22;20002;-61
2020/12/31 11:31:09;;;;;;;57.88;31.08;;;6.40;99.90;;;;;;6367800;22;20006;-61
2020/12/31 11:33:43;;;;;;;61.10;30.88;;;6.30;99.90;;;;;;6365163;22;20149;-60
2020/12/31 11:36:09;;;;;;;65.05;33.22;;;6.10;99.90;;;;;;6367621;22;20014;-61
2020/12/31 11:38:36;;;;;;;65.72;32.67;;;6.10;99.90;;;;;;6367628;22;20003;-61
2020/12/31 11:41:04;;;;;;;59.70;31.80;;;6.00;99.90;;;;;;6367657;22;20003;-61
2020/12/31 11:43:30;;;;;;;70.93;34.13;;;6.00;99.90;;;;;;6367638;22;20182;-62
2020/12/31 11:45:55;;;;;;;59.63;31.73;;;5.90;99.90;;;;;;6367484;22;20506;-61
2020/12/31 11:48:21;;;;;;;62.95;33.22;;;5.90;99.90;;;;;;6367676;22;19998;-61
2020/12/31 11:50:51;;;;;;;61.03;30.63;;;5.90;99.90;;;;;;6367582;22;20393;-60
2020/12/31 11:53:18;;;;;;;63.00;30.95;;;5.80;99.90;;;;;;6367327;22;20002;-61
2020/12/31 11:55:45;;;;;;;63.72;33.65;;;5.90;99.90;;;;;;6367625;22;20324;-61
2020/12/31 11:58:11;;;;;;;60.65;31.10;;;5.80;99.90;;;;;;6367618;22;20027;-60
2020/12/31 12:00:37;;;;;;;55.95;29.65;;;5.80;99.90;;;;;;6367472;22;20002;-60
2020/12/31 12:03:03;;;;;;;49.95;28.63;;;5.80;99.90;;;;;;6367449;22;20002;-60
2020/12/31 12:05:29;;;;;;;52.38;27.17;;;5.70;99.90;;;;;;6367372;22;20010;-60
2020/12/31 12:07:57;;;;;;;56.53;29.25;;;5.70;99.90;;;;;;6367182;22;20010;-60
2020/12/31 12:10:23;;;;;;;47.60;25.02;;;5.70;99.90;;;;;;6367220;22;20030;-60
2020/12/31 12:12:49;;;;;;;54.05;25.42;;;5.70;99.90;;;;;;6367623;22;19998;-61
2020/12/31 12:15:15;;;;;;;41.13;24.05;;;5.70;99.90;;;;;;6367572;22;20351;-60
2020/12/31 12:17:41;;;;;;;62.90;27.98;;;5.70;99.90;;;;;;6367308;22;20032;-61
2020/12/31 12:20:10;;;;;;;49.08;26.42;;;5.80;99.90;;;;;;6367337;22;20006;-61
2020/12/31 12:22:37;;;;;;;50.30;25.27;;;5.80;99.90;;;;;;6367404;22;20002;-60
2020/12/31 12:25:04;;;;;;;42.42;24.52;;;5.80;99.90;;;;;;6367260;22;20433;-60
2020/12/31 12:27:30;;;;;;;43.25;23.75;;;5.80;99.90;;;;;;6367061;22;20010;-61
2020/12/31 12:29:55;;;;;;;48.25;24.38;;;5.80;99.90;;;;;;6367203;22;20335;-60
2020/12/31 12:32:21;;;;;;;38.80;22.17;;;5.80;99.90;;;;;;6367125;22;20014;-60
2020/12/31 12:34:47;;;;;;;37.40;23.20;;;5.80;99.90;;;;;;6364551;22;20082;-61
2020/12/31 12:37:14;;;;;;;38.40;23.80;;;5.80;99.90;;;;;;6367008;22;21259;-61
2020/12/31 12:39:40;;;;;;;42.95;24.98;;;5.80;99.90;;;;;;6367254;22;20079;-60
2020/12/31 12:42:05;;;;;;;49.20;25.70;;;5.70;99.90;;;;;;6367103;22;20085;-61
2020/12/31 12:44:31;;;;;;;46.33;24.63;;;5.70;99.90;;;;;;6367063;22;20445;-60